X  Sluiten METAR luchtvaart weer gegevens         LPMA Madeira Airport
Temperatuur
75°F Temperatuur
63°F Dauwpunt
65% Vochtigheid



Wind
14 MPH
22 KM/U
6 M/S
12 KTS



350°
N
Huidig weer

Mostly Clear Grotendeels helder
Luchtdruk 1019 (hPa) - 30.08 (inHg)
Zicht 6 (mijl) - 10 (km)
Vliegveld
Vliegveld code LPMA

Locatie : Madeira Airport
Afstand: 51 (mi)

Metar:
METAR LPMA 200530Z 35012KT 9999 FEW015 24/17 Q1019

Tijd: 20-07-2024 06:30 WEST